タシュケント の空港の天気 - METARとTAF

タシケント空港 ( UTTT / TAS ) - ウズベキスタン タシュケント
飛行場実況気象(Metar)
観測時間08/07 02:00 UZT (08/06 21:00 UTC)
風向・風速北東 2m/s
視程10km以上
天気現象
なし
気温26℃
湿度58%
気圧1006hPa
METARUTTT 062100Z 05004KT CAVOK 26/17 Q1006 R08R/CLRD70 NOSIG
過去の天気等 Google飛行場航空写真 Wunderground天気予報

過去48時間のMETAR

飛行場予報(TAF)
発表時間: 8/06 22:00 UZT (8/06 17:00 UTC)
予報対象時間: 6日23時 UZT ~ 7日23時 UZT
風向・風速東 4m/s
視程7000m
なし
7日11時 UZT ~ 7日17時 UZT に 確率 40% で一時的に
天気現象
全天の4割程度の積乱雲 雲底高度 1830m
TAF UTTT 061700Z 0618/0718 09008KT 7000 NSC TX37/0710Z
PROB40 TEMPO 0706/0712 TS SCT060CB